Aeroporto :
LOGIN :

Iscrizione | Disclaimer

   EN    FR    IT 

 










Sommario :    VFR   VFR Marginale   IFR   IFR Intensivo   IFR Molto Intensivo
Visibilità : 
Base nubi : 
>= 8 km
>= 3000ft
5 / 8 km
1000 / 3000 ft
1500m / 5 km
500 / 1000 ft
800 / 1500m
200 / 500 ft
< 800m
< 200 ft
Simboli :   Temporali  Nebbia  Neve Forte  Precipitazioni Forti  Vento > 20 kt
SIGMETs :   Varie  Temporali  Ghiacco  Turbolenza  Onda orograficha  Ceneri Vulcaniche






- Altitudine del aeroporto : 512 ft
- Codice IATA : URO


LFOP - Rouen Vallée de Seine

ULTIMO METAR :
  • 211500Z AUTO 01017KT 340V050 CAVOK 11/01 Q1025 TEMPO 02015G25KT

METARs OBSOLETI :
  • 211430Z AUTO 01017KT 9999 FEW026/// SCT048/// //////TCU 11/02 Q1025 TEMPO 02015G25KT BECMG FEW035
  • 211400Z AUTO 35013KT 320V020 9999 SCT028 BKN036 BKN048 11/05 Q1025 TEMPO 02015G25KT
  • 211330Z AUTO 34015KT 310V020 9999 SCT020 BKN025 BKN031 10/05 Q1025 TEMPO 02015G25KT
  • 211300Z AUTO 35015KT 320V020 9999 FEW018 BKN024 BKN033 09/05 Q1025 TEMPO 02015G25KT 4000 SHRA BKN014 BKN020TCU
  • 211230Z AUTO 35015KT 320V020 9999 BKN023/// BKN028/// BKN049/// //////TCU 09/04 Q1025 TEMPO 02015G25KT 4000 SHRA BECMG FEW035
  • 211200Z AUTO 35015KT 9999 FEW011 BKN019 BKN031 09/04 Q1025 TEMPO 02015G25KT 4000 SHRA BKN014 BKN020TCU
  • 211130Z AUTO 36017KT 320V030 9999 BKN022 OVC027 07/04 Q1026 TEMPO 02015G25KT
  • 211100Z AUTO 34013KT 310V010 9999 BKN025 BKN032 OVC041 08/04 Q1025 TEMPO 02015G25KT 4000 SHRA BKN014 BKN020TCU
  • 211030Z AUTO 34010KT 310V010 9999 SCT018 SCT025 BKN030 08/04 Q1026 TEMPO 02015G25KT 4000 SHRA BKN014 BKN020TCU

TAF TAF LFOP
Valido dal 21 a 15 ore il 22 a 00 ore UTC


211400Z 2115/2124 35012KT 9999 SCT030
TEMPO 2115/2117 02015G25KT
ATIS : +33 2 35 80 80 34
Met : +33 2 32 86 52 80



MetMap, La meteo Aeronautica in un colpo d'occhio ! - Copyright ORBIFLY Dicembre 2007 - Disclaimer

ORBIFLY MET'MAP TEAM :

Programmazione e sviluppo : Alexandra Zaïnal
Concezione : Baudouin d'Aumeries
Supporto tecnico e logistico : Manuel Goepfert
Aiuto : Marc-Olivier Méhu
Aiuto per la traduzione : Arnaldo La Scala




FONTI E CREDITI :

   NOAA